createdAt,value
2022-08-22T00:00:43.761Z,6.20
2022-08-22T00:02:41.796Z,7.00
2022-08-22T00:03:03.717Z,6.90
2022-08-22T00:05:36.871Z,6.50
2022-08-22T00:07:51.672Z,6.30
2022-08-22T00:10:01.539Z,6.60
2022-08-22T00:12:14.968Z,7.00
2022-08-22T00:14:25.072Z,6.10
2022-08-22T00:16:38.482Z,6.20
2022-08-22T00:18:50.864Z,6.70
2022-08-22T00:21:09.091Z,7.20
2022-08-22T00:23:18.372Z,6.20
2022-08-22T00:25:37.135Z,6.10
2022-08-22T00:27:50.138Z,6.00
2022-08-22T00:29:59.005Z,6.20
2022-08-22T00:32:11.943Z,5.30
2022-08-22T00:34:30.055Z,5.80
2022-08-22T00:36:39.528Z,5.40
2022-08-22T00:38:52.189Z,5.80
2022-08-22T00:41:03.716Z,5.30
2022-08-22T00:43:42.129Z,5.20
2022-08-22T00:46:18.515Z,5.60
2022-08-22T00:48:58.336Z,5.10
2022-08-22T00:51:48.314Z,5.40
2022-08-22T00:53:59.781Z,5.40
2022-08-22T00:56:28.410Z,5.30
2022-08-22T00:58:56.142Z,6.10
2022-08-22T01:01:16.493Z,5.80
2022-08-22T01:03:56.464Z,5.20
2022-08-22T01:06:18.654Z,5.60
2022-08-22T01:08:39.345Z,7.50
2022-08-22T01:10:56.207Z,5.60
2022-08-22T01:13:22.245Z,4.70
2022-08-22T01:15:30.504Z,5.20
2022-08-22T01:18:07.045Z,6.10
2022-08-22T01:20:45.074Z,5.40
2022-08-22T01:23:17.781Z,5.30
2022-08-22T01:26:04.291Z,5.10
2022-08-22T01:28:45.009Z,4.60
2022-08-22T01:31:22.757Z,4.70
2022-08-22T01:33:58.470Z,5.50
2022-08-22T01:36:22.818Z,4.40
2022-08-22T01:38:51.981Z,4.10
2022-08-22T01:41:20.091Z,4.20
2022-08-22T01:43:58.801Z,4.60
2022-08-22T01:46:24.914Z,3.90
2022-08-22T01:48:38.137Z,4.50
2022-08-22T01:50:46.985Z,4.90
2022-08-22T01:52:59.284Z,4.80
2022-08-22T01:55:11.222Z,4.70
2022-08-22T01:57:16.917Z,3.90
2022-08-22T01:59:34.088Z,4.10
2022-08-22T02:02:01.141Z,4.30
2022-08-22T02:04:11.104Z,4.50
2022-08-22T02:06:23.037Z,4.00
2022-08-22T02:08:38.772Z,3.80
2022-08-22T02:10:54.134Z,4.50
2022-08-22T02:13:08.264Z,4.10
2022-08-22T02:15:21.239Z,4.00
2022-08-22T02:17:32.130Z,3.80
2022-08-22T02:19:47.363Z,4.10
2022-08-22T02:21:58.054Z,4.50
2022-08-22T02:24:14.593Z,4.50
2022-08-22T02:26:25.615Z,4.10
2022-08-22T02:28:39.001Z,4.40
2022-08-22T02:30:52.035Z,4.20
2022-08-22T02:33:04.440Z,4.90
2022-08-22T02:35:18.666Z,4.60
2022-08-22T02:37:33.233Z,4.70
2022-08-22T02:39:44.383Z,5.10
2022-08-22T02:41:56.285Z,5.20
2022-08-22T02:44:13.325Z,4.40
2022-08-22T02:46:28.431Z,4.70
2022-08-22T02:48:42.242Z,5.00
2022-08-22T02:50:53.121Z,5.40
2022-08-22T02:53:05.334Z,6.20
2022-08-22T02:55:16.109Z,4.40
2022-08-22T02:57:30.142Z,4.80
2022-08-22T02:59:57.684Z,5.50
2022-08-22T03:02:36.586Z,4.80
2022-08-22T03:04:51.951Z,4.50
2022-08-22T03:07:23.072Z,4.60
2022-08-22T03:09:33.724Z,4.50
2022-08-22T03:11:44.299Z,5.10
2022-08-22T03:14:01.095Z,4.70
2022-08-22T03:16:16.347Z,4.70
2022-08-22T03:18:27.585Z,5.00
2022-08-22T03:20:47.148Z,4.20
2022-08-22T03:22:58.759Z,4.20
2022-08-22T03:25:12.614Z,4.30
2022-08-22T03:27:23.255Z,3.80
2022-08-22T03:29:45.008Z,3.20
2022-08-22T03:32:08.505Z,4.40
2022-08-22T03:34:23.959Z,3.20
2022-08-22T03:36:30.551Z,4.30
2022-08-22T03:38:54.578Z,4.10
2022-08-22T03:41:30.293Z,3.90
2022-08-22T03:43:59.179Z,4.30
2022-08-22T03:46:34.998Z,4.20
2022-08-22T03:49:12.193Z,3.50
2022-08-22T03:51:29.474Z,4.00
2022-08-22T03:53:56.514Z,4.40
2022-08-22T03:56:26.521Z,3.90
2022-08-22T03:58:53.975Z,4.00
2022-08-22T04:01:26.222Z,4.50
2022-08-22T04:04:10.374Z,5.60
2022-08-22T04:06:56.342Z,3.60
2022-08-22T04:09:29.085Z,4.00
2022-08-22T04:11:51.308Z,4.10
2022-08-22T04:14:13.161Z,4.20
2022-08-22T04:16:45.066Z,3.90
2022-08-22T04:19:11.154Z,3.40
2022-08-22T04:21:39.278Z,4.00
2022-08-22T04:24:14.440Z,3.80
2022-08-22T04:26:33.347Z,4.00
2022-08-22T04:28:42.073Z,3.20
2022-08-22T04:30:52.194Z,3.40
2022-08-22T04:33:05.195Z,4.10
2022-08-22T04:35:24.228Z,3.60
2022-08-22T04:37:36.384Z,4.20
2022-08-22T04:39:47.341Z,3.80
2022-08-22T04:42:03.521Z,5.00
2022-08-22T04:44:22.569Z,3.90
2022-08-22T04:46:37.013Z,4.00
2022-08-22T04:48:47.951Z,4.30
2022-08-22T04:50:58.290Z,3.50
2022-08-22T04:53:17.151Z,3.80
2022-08-22T04:55:32.538Z,4.20
2022-08-22T04:57:48.878Z,5.10
2022-08-22T04:59:57.896Z,4.00
2022-08-22T05:02:04.415Z,4.70
2022-08-22T05:04:12.150Z,4.80
2022-08-22T05:06:19.437Z,4.60
2022-08-22T05:08:31.161Z,4.60
2022-08-22T05:10:38.468Z,3.90
2022-08-22T05:12:47.991Z,4.60
2022-08-22T05:14:58.558Z,4.70
2022-08-22T05:17:06.035Z,4.60
2022-08-22T05:19:16.901Z,4.10
2022-08-22T05:21:27.292Z,3.80
2022-08-22T05:23:38.710Z,4.00
2022-08-22T05:25:45.468Z,4.50
2022-08-22T05:27:56.408Z,4.00
2022-08-22T05:30:05.828Z,5.00
2022-08-22T05:32:19.146Z,3.90
2022-08-22T05:34:31.905Z,3.40
2022-08-22T05:36:44.443Z,4.00
2022-08-22T05:38:54.564Z,4.20
2022-08-22T05:41:05.627Z,4.70
2022-08-22T05:43:15.323Z,4.30
2022-08-22T05:45:21.475Z,3.70
2022-08-22T05:47:35.200Z,3.60
2022-08-22T05:49:49.649Z,4.50
2022-08-22T05:52:07.253Z,4.30
2022-08-22T05:54:19.397Z,3.70
2022-08-22T05:56:37.415Z,4.20
2022-08-22T05:58:54.422Z,3.70
2022-08-22T06:01:08.797Z,3.80
2022-08-22T06:03:18.780Z,4.50
2022-08-22T06:05:27.375Z,4.80
2022-08-22T06:07:40.278Z,4.20
2022-08-22T06:10:07.622Z,4.20
2022-08-22T06:12:21.854Z,3.90
2022-08-22T06:14:38.604Z,4.10
2022-08-22T06:16:50.004Z,4.40
2022-08-22T06:18:56.203Z,4.90
2022-08-22T06:21:03.689Z,4.20
2022-08-22T06:23:17.144Z,4.40
2022-08-22T06:25:26.288Z,4.60
2022-08-22T06:27:31.475Z,4.70
2022-08-22T06:29:40.759Z,4.60
2022-08-22T06:31:49.900Z,5.30
2022-08-22T06:34:00.957Z,5.30
2022-08-22T06:36:12.323Z,5.40
2022-08-22T06:38:22.353Z,6.40
2022-08-22T06:40:29.461Z,5.60
2022-08-22T06:42:38.335Z,4.90
2022-08-22T06:44:47.455Z,5.10
2022-08-22T06:46:56.088Z,5.10
2022-08-22T06:49:02.801Z,4.10
2022-08-22T06:51:08.769Z,4.70
2022-08-22T06:53:18.363Z,5.00
2022-08-22T06:55:25.123Z,5.80
2022-08-22T06:57:34.727Z,4.60
2022-08-22T06:59:42.036Z,5.30
2022-08-22T07:01:52.361Z,4.90
2022-08-22T07:04:08.990Z,4.80
2022-08-22T07:06:18.611Z,4.00
2022-08-22T07:08:25.364Z,5.80
2022-08-22T07:10:30.552Z,5.20
2022-08-22T07:12:37.213Z,4.60
2022-08-22T07:14:46.326Z,4.70
2022-08-22T07:16:58.289Z,5.30
2022-08-22T07:19:03.368Z,5.30
2022-08-22T07:21:08.160Z,5.30
2022-08-22T07:23:24.828Z,6.40
2022-08-22T07:25:31.139Z,7.10
2022-08-22T07:27:51.282Z,5.00
2022-08-22T07:30:10.035Z,4.10
2022-08-22T07:32:21.055Z,5.20
2022-08-22T07:34:39.087Z,5.40
2022-08-22T07:36:49.337Z,4.70
2022-08-22T07:39:11.097Z,4.10
2022-08-22T07:41:20.811Z,3.80
2022-08-22T07:43:31.897Z,3.30
2022-08-22T07:45:43.416Z,3.30
2022-08-22T07:48:01.433Z,3.80
2022-08-22T07:50:14.526Z,4.30
2022-08-22T07:52:20.083Z,3.70
2022-08-22T07:54:31.858Z,6.00
2022-08-22T07:56:48.771Z,5.50
2022-08-22T07:58:57.209Z,3.40
2022-08-22T08:01:03.056Z,3.20
2022-08-22T08:03:09.663Z,3.60
2022-08-22T08:05:15.557Z,3.10
2022-08-22T08:07:28.087Z,3.10
2022-08-22T08:09:37.703Z,3.10
2022-08-22T08:11:44.531Z,3.40
2022-08-22T08:13:57.393Z,3.30
2022-08-22T08:16:05.025Z,3.50
2022-08-22T08:18:13.754Z,3.10
2022-08-22T08:20:25.021Z,3.30
2022-08-22T08:22:31.054Z,3.30
2022-08-22T08:24:40.266Z,4.30
2022-08-22T08:26:54.490Z,3.10
2022-08-22T08:29:00.777Z,4.70
2022-08-22T08:31:14.909Z,3.70
2022-08-22T08:33:25.156Z,3.70
2022-08-22T08:35:42.418Z,3.60
2022-08-22T08:38:07.062Z,3.50
2022-08-22T08:40:34.356Z,3.50
2022-08-22T08:42:57.835Z,4.00
2022-08-22T08:45:23.747Z,3.10
2022-08-22T08:47:40.857Z,3.20
2022-08-22T08:50:02.937Z,2.40
2022-08-22T08:52:40.487Z,3.40
2022-08-22T08:55:19.649Z,3.10
2022-08-22T08:57:43.536Z,3.30
2022-08-22T09:00:00.551Z,3.00
2022-08-22T09:02:20.343Z,3.10
2022-08-22T09:04:52.558Z,3.10
2022-08-22T09:07:30.545Z,3.00
2022-08-22T09:10:00.967Z,3.30
2022-08-22T09:12:20.463Z,3.80
2022-08-22T09:14:44.502Z,4.20
2022-08-22T09:17:14.501Z,3.60
2022-08-22T09:19:56.608Z,3.50
2022-08-22T09:22:24.732Z,4.30
2022-08-22T09:24:54.032Z,3.70
2022-08-22T09:27:02.512Z,3.70
2022-08-22T09:29:31.572Z,4.00
2022-08-22T09:31:51.502Z,3.80
2022-08-22T09:34:05.222Z,2.70
2022-08-22T09:36:18.737Z,3.10
2022-08-22T09:38:48.044Z,2.70
2022-08-22T09:41:02.322Z,3.50
2022-08-22T09:43:11.730Z,2.50
2022-08-22T09:45:48.052Z,2.60
2022-08-22T09:48:02.251Z,3.20
2022-08-22T09:50:19.824Z,2.90
2022-08-22T09:52:50.785Z,4.80
2022-08-22T09:55:04.319Z,2.80
2022-08-22T09:57:28.114Z,3.20
2022-08-22T09:59:50.540Z,3.00
2022-08-22T10:02:02.584Z,2.80
2022-08-22T10:04:43.142Z,2.40
2022-08-22T10:06:59.234Z,2.40
2022-08-22T10:09:09.998Z,2.70
2022-08-22T10:11:26.139Z,2.40
2022-08-22T10:13:43.930Z,2.90
2022-08-22T10:15:55.592Z,2.90
2022-08-22T10:18:26.325Z,2.30
2022-08-22T10:20:37.935Z,2.70
2022-08-22T10:22:57.047Z,2.10
2022-08-22T10:25:19.743Z,2.10
2022-08-22T10:27:42.108Z,2.00
2022-08-22T10:30:04.234Z,1.80
2022-08-22T10:32:25.185Z,2.00
2022-08-22T10:34:37.090Z,2.70
2022-08-22T10:36:56.930Z,2.60
2022-08-22T10:39:10.950Z,2.80
2022-08-22T10:41:27.968Z,2.50
2022-08-22T10:43:44.085Z,3.00
2022-08-22T10:45:54.801Z,3.80
2022-08-22T10:48:37.033Z,3.20
2022-08-22T10:50:47.869Z,2.60
2022-08-22T10:52:57.445Z,3.60
2022-08-22T10:55:12.672Z,2.80
2022-08-22T10:57:29.467Z,1.80
2022-08-22T10:59:45.647Z,2.20
2022-08-22T11:02:14.306Z,2.40
2022-08-22T11:04:38.194Z,1.70
2022-08-22T11:06:51.107Z,1.90
2022-08-22T11:09:13.826Z,2.70
2022-08-22T11:11:36.689Z,2.80
2022-08-22T11:13:51.345Z,2.20
2022-08-22T11:16:04.399Z,2.90
2022-08-22T11:18:25.461Z,2.30
2022-08-22T11:20:36.946Z,2.50
2022-08-22T11:22:49.412Z,3.40
2022-08-22T11:25:13.225Z,2.20
2022-08-22T11:27:37.883Z,2.70
2022-08-22T11:29:56.964Z,2.60
2022-08-22T11:32:11.580Z,1.20
2022-08-22T11:34:30.701Z,1.80
2022-08-22T11:36:40.168Z,2.50
2022-08-22T11:38:59.114Z,1.90
2022-08-22T11:41:15.184Z,2.00
2022-08-22T11:43:37.241Z,1.60
2022-08-22T11:45:47.014Z,1.70
2022-08-22T11:48:01.944Z,2.20
2022-08-22T11:50:15.805Z,2.20
2022-08-22T11:52:51.759Z,2.30
2022-08-22T11:55:21.547Z,1.80
2022-08-22T11:57:37.697Z,1.80
2022-08-22T12:00:01.712Z,2.70
2022-08-22T12:02:37.319Z,2.20
2022-08-22T12:04:46.212Z,2.00
2022-08-22T12:07:01.958Z,1.40
2022-08-22T12:09:40.993Z,2.10
2022-08-22T12:11:56.524Z,1.90
2022-08-22T12:14:06.848Z,3.30
2022-08-22T12:16:19.709Z,2.20
2022-08-22T12:18:47.780Z,1.90
2022-08-22T12:21:25.882Z,1.40
2022-08-22T12:23:50.239Z,2.20
2022-08-22T12:26:11.441Z,3.50
2022-08-22T12:28:30.161Z,2.60
2022-08-22T12:30:41.773Z,2.30
2022-08-22T12:33:20.759Z,2.10
2022-08-22T12:35:41.968Z,2.10
2022-08-22T12:37:54.772Z,2.50
2022-08-22T12:40:26.343Z,2.60
2022-08-22T12:42:49.596Z,2.20
2022-08-22T12:45:12.998Z,2.10
2022-08-22T12:47:35.065Z,1.50
2022-08-22T12:49:57.010Z,1.90
2022-08-22T12:52:19.617Z,1.30
2022-08-22T12:54:45.691Z,2.90
2022-08-22T12:56:59.242Z,2.30
2022-08-22T12:59:24.579Z,2.00
2022-08-22T13:01:36.518Z,1.40
2022-08-22T13:03:50.074Z,1.50
2022-08-22T13:06:00.327Z,1.60
2022-08-22T13:08:09.198Z,1.70
2022-08-22T13:10:40.883Z,1.60
2022-08-22T13:12:50.049Z,1.10
2022-08-22T13:14:58.673Z,1.30
2022-08-22T13:17:23.637Z,1.20
2022-08-22T13:19:31.909Z,0.90
2022-08-22T13:21:44.041Z,1.60
2022-08-22T13:23:54.197Z,2.00
2022-08-22T13:26:08.632Z,1.30
2022-08-22T13:28:14.972Z,3.70
2022-08-22T13:30:24.045Z,2.70
2022-08-22T13:32:35.961Z,3.20
2022-08-22T13:34:49.015Z,2.40
2022-08-22T13:36:59.303Z,1.80
2022-08-22T13:39:22.669Z,1.90
2022-08-22T13:41:31.469Z,2.40
2022-08-22T13:43:53.512Z,1.60
2022-08-22T13:46:02.659Z,1.60
2022-08-22T13:48:12.394Z,2.50
2022-08-22T13:50:21.933Z,2.30
2022-08-22T13:52:32.921Z,1.50
2022-08-22T13:54:54.728Z,1.80
2022-08-22T13:57:09.059Z,3.20
2022-08-22T13:59:47.460Z,4.40
2022-08-22T14:01:56.285Z,3.00
2022-08-22T14:04:17.766Z,3.40
2022-08-22T14:06:41.487Z,3.20
2022-08-22T14:08:50.668Z,3.40
2022-08-22T14:11:03.480Z,3.60
2022-08-22T14:13:41.138Z,4.30
2022-08-22T14:15:46.304Z,4.60
2022-08-22T14:17:55.712Z,4.00
2022-08-22T14:20:11.157Z,3.90
2022-08-22T14:22:21.445Z,3.90
2022-08-22T14:24:45.646Z,4.40
2022-08-22T14:26:57.886Z,5.00
2022-08-22T14:29:12.139Z,3.30
2022-08-22T14:31:25.791Z,5.20
2022-08-22T14:33:37.088Z,3.90
2022-08-22T14:35:52.714Z,4.10
2022-08-22T14:38:17.335Z,4.70
2022-08-22T14:40:27.570Z,4.50
2022-08-22T14:42:44.330Z,3.20
2022-08-22T14:45:06.730Z,3.90
2022-08-22T14:47:54.708Z,3.10
2022-08-22T14:49:53.472Z,3.20
2022-08-22T14:52:04.204Z,3.40
2022-08-22T14:54:14.018Z,3.80
2022-08-22T14:56:29.789Z,3.20
2022-08-22T14:58:38.011Z,4.00
2022-08-22T15:00:48.038Z,4.00
2022-08-22T15:03:05.432Z,3.90
2022-08-22T15:05:20.502Z,3.10
2022-08-22T15:07:28.257Z,3.30
2022-08-22T15:09:36.653Z,3.60
2022-08-22T15:11:49.374Z,3.30
2022-08-22T15:14:00.276Z,3.10
2022-08-22T15:16:15.815Z,3.00
2022-08-22T15:18:35.540Z,3.20
2022-08-22T15:20:45.432Z,3.20
2022-08-22T15:22:56.385Z,5.00
2022-08-22T15:25:06.496Z,3.00
2022-08-22T15:27:17.201Z,3.10
2022-08-22T15:29:25.956Z,3.50
2022-08-22T15:31:31.302Z,3.20
2022-08-22T15:33:40.208Z,3.90
2022-08-22T15:35:49.093Z,4.90
2022-08-22T15:38:00.306Z,3.40
2022-08-22T15:40:31.625Z,4.20
2022-08-22T15:42:40.669Z,3.70
2022-08-22T15:44:53.518Z,4.80
2022-08-22T15:47:12.038Z,3.70
2022-08-22T15:49:31.960Z,4.20
2022-08-22T15:51:46.354Z,4.10
2022-08-22T15:54:24.983Z,4.30
2022-08-22T15:56:35.046Z,4.50
2022-08-22T15:58:48.774Z,3.80
2022-08-22T16:01:19.152Z,4.10
2022-08-22T16:03:32.029Z,3.00
2022-08-22T16:05:46.536Z,3.50
2022-08-22T16:08:00.586Z,3.80
2022-08-22T16:10:10.144Z,4.00
2022-08-22T16:12:30.465Z,3.20
2022-08-22T16:14:51.213Z,3.30
2022-08-22T16:17:02.437Z,3.30
2022-08-22T16:19:22.742Z,5.30
2022-08-22T16:22:09.365Z,4.50
2022-08-22T16:24:55.048Z,3.00
2022-08-22T16:27:15.048Z,5.20
2022-08-22T16:29:41.414Z,5.80
2022-08-22T16:32:01.437Z,5.80
2022-08-22T16:34:38.253Z,5.70
2022-08-22T16:36:51.910Z,5.80
2022-08-22T16:38:58.458Z,5.00
2022-08-22T16:41:03.715Z,4.30
2022-08-22T16:43:18.679Z,5.10
2022-08-22T16:45:34.819Z,4.20
2022-08-22T16:47:42.928Z,3.60
2022-08-22T16:50:26.023Z,3.90
2022-08-22T16:52:54.964Z,4.50
2022-08-22T16:55:02.547Z,4.80
2022-08-22T16:57:20.378Z,3.30
2022-08-22T16:59:47.731Z,6.20
2022-08-22T17:02:17.632Z,3.60
2022-08-22T17:04:33.800Z,3.50
2022-08-22T17:06:56.478Z,2.90
2022-08-22T17:09:20.653Z,4.20
2022-08-22T17:11:40.556Z,3.20
2022-08-22T17:14:09.385Z,3.80
2022-08-22T17:16:31.777Z,4.10
2022-08-22T17:18:58.165Z,6.00
2022-08-22T17:21:10.931Z,7.00
2022-08-22T17:23:27.144Z,3.50
2022-08-22T17:25:47.867Z,3.60
2022-08-22T17:28:05.016Z,3.60
2022-08-22T17:30:12.877Z,3.90
2022-08-22T17:32:29.055Z,3.00
2022-08-22T17:34:42.249Z,3.40
2022-08-22T17:37:01.372Z,4.00
2022-08-22T17:39:29.094Z,3.80
2022-08-22T17:41:46.568Z,3.80
2022-08-22T17:44:02.967Z,4.30
2022-08-22T17:46:19.412Z,3.70
2022-08-22T17:48:28.845Z,3.40
2022-08-22T17:50:42.909Z,3.10
2022-08-22T17:52:55.109Z,3.90
2022-08-22T17:55:05.808Z,3.40
2022-08-22T17:57:22.429Z,3.20
2022-08-22T17:59:31.425Z,2.20
2022-08-22T18:01:47.260Z,2.60
2022-08-22T18:04:01.304Z,2.70
2022-08-22T18:06:10.311Z,3.50
2022-08-22T18:11:00.006Z,2.80
2022-08-22T18:13:10.133Z,3.80
2022-08-22T18:15:25.348Z,4.10
2022-08-22T18:17:37.482Z,4.30
2022-08-22T18:19:52.537Z,3.60
2022-08-22T18:22:01.640Z,3.90
2022-08-22T18:24:20.442Z,3.80
2022-08-22T18:26:33.665Z,3.50
2022-08-22T18:28:50.740Z,3.10
2022-08-22T18:31:01.495Z,3.00
2022-08-22T18:33:18.225Z,5.00
2022-08-22T18:35:28.967Z,3.10
2022-08-22T18:37:49.886Z,4.50
2022-08-22T18:39:59.429Z,3.90
2022-08-22T18:42:09.197Z,3.30
2022-08-22T18:44:21.263Z,3.90
2022-08-22T18:46:45.158Z,4.20
2022-08-22T18:49:14.075Z,3.50
2022-08-22T18:51:24.770Z,4.30
2022-08-22T18:53:45.412Z,5.00
2022-08-22T18:55:56.658Z,4.10
2022-08-22T18:58:34.340Z,3.50
2022-08-22T19:00:57.716Z,3.80
2022-08-22T19:03:19.425Z,3.90
2022-08-22T19:05:34.618Z,3.50
2022-08-22T19:08:03.068Z,4.10
2022-08-22T19:10:41.379Z,3.40
2022-08-22T19:13:09.786Z,3.60
2022-08-22T19:15:39.988Z,4.00
2022-08-22T19:18:22.816Z,4.30
2022-08-22T19:20:30.932Z,4.30
2022-08-22T19:22:37.623Z,3.60
2022-08-22T19:25:14.050Z,3.50
2022-08-22T19:27:31.197Z,3.30
2022-08-22T19:30:00.350Z,3.80
2022-08-22T19:32:12.930Z,3.10
2022-08-22T19:34:34.801Z,4.00
2022-08-22T19:36:39.767Z,3.60
2022-08-22T19:39:01.563Z,3.50
2022-08-22T19:41:06.789Z,3.20
2022-08-22T19:43:30.900Z,3.60
2022-08-22T19:45:41.442Z,3.60
2022-08-22T19:47:58.378Z,3.60
2022-08-22T19:50:10.304Z,3.20
2022-08-22T19:52:26.839Z,3.40
2022-08-22T19:54:34.764Z,2.60
2022-08-22T19:56:55.408Z,3.60
2022-08-22T19:59:15.367Z,3.50
2022-08-22T20:01:43.826Z,3.80
2022-08-22T20:03:54.687Z,2.60
2022-08-22T20:06:22.111Z,3.90
2022-08-22T20:08:51.207Z,3.50
2022-08-22T20:11:11.141Z,3.80
2022-08-22T20:13:23.655Z,3.60
2022-08-22T20:15:30.733Z,3.10
2022-08-22T20:17:43.402Z,4.00
2022-08-22T20:22:25.497Z,3.50
2022-08-22T20:24:39.841Z,5.10
2022-08-22T20:27:12.294Z,2.90
2022-08-22T20:29:16.092Z,3.40
2022-08-22T20:31:25.502Z,4.30
2022-08-22T20:33:34.444Z,2.70
2022-08-22T20:35:43.431Z,3.20
2022-08-22T20:38:06.584Z,3.30
2022-08-22T20:40:55.262Z,3.90
2022-08-22T20:42:52.646Z,5.00
2022-08-22T20:44:58.515Z,6.20
2022-08-22T20:47:08.076Z,4.00
2022-08-22T20:49:21.323Z,3.50
2022-08-22T20:51:29.561Z,4.40
2022-08-22T20:53:35.664Z,3.70
2022-08-22T20:55:51.814Z,4.30
2022-08-22T20:57:59.581Z,4.80
2022-08-22T21:00:11.124Z,4.70
2022-08-22T21:02:20.442Z,4.60
2022-08-22T21:04:30.859Z,4.90
2022-08-22T21:06:35.659Z,5.10
2022-08-22T21:08:42.034Z,4.60
2022-08-22T21:10:59.086Z,4.20
2022-08-22T21:13:07.737Z,4.80
2022-08-22T21:15:12.684Z,4.50
2022-08-22T21:17:27.246Z,4.30
2022-08-22T21:19:32.866Z,4.70
2022-08-22T21:21:37.763Z,4.10
2022-08-22T21:23:45.632Z,5.00
2022-08-22T21:25:57.114Z,4.10
2022-08-22T21:28:02.021Z,5.40
2022-08-22T21:30:11.363Z,4.70
2022-08-22T21:32:31.656Z,5.90
2022-08-22T21:34:45.479Z,5.40
2022-08-22T21:36:53.366Z,5.20
2022-08-22T21:39:01.615Z,4.80
2022-08-22T21:41:08.789Z,4.40
2022-08-22T21:43:30.543Z,5.10
2022-08-22T21:45:42.417Z,5.20
2022-08-22T21:47:47.172Z,4.50
2022-08-22T21:50:13.605Z,5.60
2022-08-22T21:52:28.909Z,5.00
2022-08-22T21:54:38.537Z,4.50
2022-08-22T21:56:43.307Z,4.80
2022-08-22T21:58:50.848Z,5.50
2022-08-22T22:00:59.245Z,5.30
2022-08-22T22:03:04.038Z,4.90
2022-08-22T22:05:14.290Z,4.60
2022-08-22T22:07:19.283Z,4.60
2022-08-22T22:09:24.159Z,5.80
2022-08-22T22:11:29.091Z,4.30
2022-08-22T22:13:33.959Z,4.70
2022-08-22T22:15:46.713Z,4.80
2022-08-22T22:17:51.746Z,4.40
2022-08-22T22:19:56.438Z,5.20
2022-08-22T22:22:01.148Z,4.90
2022-08-22T22:24:06.362Z,4.30
2022-08-22T22:26:11.661Z,4.70
2022-08-22T22:28:18.496Z,4.80
2022-08-22T22:30:23.220Z,3.80
2022-08-22T22:32:27.935Z,3.80
2022-08-22T22:34:32.623Z,3.90
2022-08-22T22:36:37.699Z,3.90
2022-08-22T22:38:42.666Z,4.00
2022-08-22T22:40:49.202Z,6.40
2022-08-22T22:42:53.806Z,4.50
2022-08-22T22:44:58.592Z,3.80
2022-08-22T22:47:04.296Z,3.80
2022-08-22T22:49:11.950Z,4.40
2022-08-22T22:51:16.692Z,5.20
2022-08-22T22:53:33.675Z,4.80
2022-08-22T22:55:47.008Z,4.30
2022-08-22T22:58:08.099Z,3.90
2022-08-22T23:00:16.840Z,4.50
2022-08-22T23:02:22.745Z,4.40
2022-08-22T23:04:27.815Z,4.00
2022-08-22T23:06:33.010Z,4.80
2022-08-22T23:08:37.831Z,3.90
2022-08-22T23:10:42.723Z,4.50
2022-08-22T23:12:47.328Z,3.40
2022-08-22T23:14:52.203Z,3.80
2022-08-22T23:16:57.711Z,4.00
2022-08-22T23:19:07.012Z,4.20
2022-08-22T23:21:17.813Z,5.10
2022-08-22T23:23:22.485Z,4.50
2022-08-22T23:25:27.312Z,4.30
2022-08-22T23:27:32.142Z,4.40
2022-08-22T23:29:37.546Z,4.00
2022-08-22T23:31:50.865Z,4.10
2022-08-22T23:33:56.216Z,4.10
2022-08-22T23:36:01.426Z,5.20
2022-08-22T23:38:06.170Z,3.80
2022-08-22T23:40:12.449Z,4.40
2022-08-22T23:42:18.792Z,4.50
2022-08-22T23:44:26.372Z,5.30
2022-08-22T23:46:31.245Z,5.10
2022-08-22T23:48:37.300Z,5.00
2022-08-22T23:50:41.990Z,4.10
2022-08-22T23:52:46.955Z,4.40
2022-08-22T23:54:54.637Z,4.20
2022-08-22T23:57:02.743Z,4.60
2022-08-22T23:59:18.767Z,5.40
